Time,TemperatureF,DewpointF,PressureIn,WindDirection,WindDirectionDegrees,WindSpeedMPH,WindSpeedGustMPH,Humidity,HourlyPrecipIn,Conditions,Clouds,dailyrainin,SoftwareType,DateUTC
2013-02-28 00:00:00,57.7,51.7,29.98,West,276,0.0,0.0,80,0.00,,,0.00,VWS V14.01,2013-02-28 05:00:00,
2013-02-28 00:05:00,57.6,51.6,29.98,NW,315,0.0,0.0,80,0.00,,,0.00,VWS V14.01,2013-02-28 05:05:00,
2013-02-28 00:10:00,57.6,51.6,29.98,NW,315,0.0,0.0,80,0.00,,,0.00,VWS V14.01,2013-02-28 05:10:00,
2013-02-28 00:15:00,57.6,51.7,29.97,WNW,287,0.0,0.0,81,0.00,,,0.00,VWS V14.01,2013-02-28 05:15:00,
2013-02-28 00:20:00,57.6,51.8,29.98,WNW,287,0.0,0.0,81,0.00,,,0.00,VWS V14.01,2013-02-28 05:20:00,
2013-02-28 00:25:00,57.4,51.5,29.97,WNW,287,0.0,0.0,81,0.00,,,0.00,VWS V14.01,2013-02-28 05:25:00,
2013-02-28 00:30:00,57.4,51.6,29.97,WNW,287,0.0,0.0,81,0.00,,,0.00,VWS V14.01,2013-02-28 05:30:00,
2013-02-28 00:35:00,57.3,51.5,29.97,WNW,287,0.0,0.0,81,0.00,,,0.00,VWS V14.01,2013-02-28 05:35:00,
2013-02-28 00:40:00,57.3,51.7,29.97,WNW,287,0.0,0.0,81,0.00,,,0.00,VWS V14.01,2013-02-28 05:40:00,
2013-02-28 00:45:00,57.3,51.7,29.97,WNW,287,0.0,0.0,82,0.00,,,0.00,VWS V14.01,2013-02-28 05:45:00,
2013-02-28 00:50:00,57.3,51.7,29.97,WNW,287,0.0,0.0,82,0.00,,,0.00,VWS V14.01,2013-02-28 05:50:00,
2013-02-28 00:55:00,57.2,51.8,29.98,WNW,287,0.0,0.0,82,0.00,,,0.00,VWS V14.01,2013-02-28 05:55:00,
2013-02-28 01:00:00,57.2,51.9,29.97,WNW,287,0.0,0.0,82,0.00,,,0.00,VWS V14.01,2013-02-28 06:00:00,
2013-02-28 01:05:00,57.1,51.7,29.97,WNW,287,0.0,0.0,82,0.00,,,0.00,VWS V14.01,2013-02-28 06:05:00,
2013-02-28 01:10:00,57.0,51.8,29.97,WNW,287,0.0,0.0,83,0.00,,,0.00,VWS V14.01,2013-02-28 06:10:00,
2013-02-28 01:14:00,57.0,51.9,29.97,WNW,287,0.0,0.0,83,0.00,,,0.00,VWS V14.01,2013-02-28 06:14:00,
2013-02-28 01:19:00,56.9,51.9,29.97,WNW,287,0.0,0.0,83,0.00,,,0.00,VWS V14.01,2013-02-28 06:19:00,
2013-02-28 01:24:00,56.9,51.9,29.97,WNW,287,0.0,0.0,83,0.00,,,0.00,VWS V14.01,2013-02-28 06:24:00,
2013-02-28 01:29:00,56.8,51.9,29.97,WNW,287,0.0,0.0,84,0.00,,,0.00,VWS V14.01,2013-02-28 06:29:00,
2013-02-28 01:34:00,56.7,51.8,29.97,WNW,287,0.0,0.0,84,0.00,,,0.00,VWS V14.01,2013-02-28 06:34:00,
2013-02-28 01:39:00,56.6,51.7,29.97,WNW,287,0.0,0.0,84,0.00,,,0.00,VWS V14.01,2013-02-28 06:39:00,
2013-02-28 01:44:00,56.5,51.8,29.97,NNW,346,0.0,0.0,84,0.00,,,0.00,VWS V14.01,2013-02-28 06:44:00,
2013-02-28 01:49:00,56.4,51.6,29.97,NNW,346,0.0,0.0,84,0.00,,,0.00,VWS V14.01,2013-02-28 06:49:00,
2013-02-28 01:54:00,56.4,51.8,29.97,NNW,346,0.0,0.0,84,0.00,,,0.00,VWS V14.01,2013-02-28 06:54:00,
2013-02-28 01:59:00,56.3,51.7,29.97,NNW,346,0.0,0.0,85,0.00,,,0.00,VWS V14.01,2013-02-28 06:59:00,
2013-02-28 02:04:00,56.3,51.7,29.97,West,264,3.2,5.0,85,0.00,,,0.00,VWS V14.01,2013-02-28 07:04:00,
2013-02-28 02:09:00,56.2,51.6,29.97,West,264,0.0,0.0,84,0.00,,,0.00,VWS V14.01,2013-02-28 07:09:00,
2013-02-28 02:14:00,56.3,51.7,29.97,West,264,0.0,0.0,84,0.00,,,0.00,VWS V14.01,2013-02-28 07:14:00,
2013-02-28 02:19:00,56.1,51.4,29.97,West,264,0.0,0.0,84,0.00,,,0.00,VWS V14.01,2013-02-28 07:19:00,
2013-02-28 02:24:00,56.2,51.5,29.97,West,264,0.0,0.0,84,0.00,,,0.00,VWS V14.01,2013-02-28 07:24:00,
2013-02-28 02:29:00,56.2,51.6,29.97,West,264,0.0,0.0,84,0.00,,,0.00,VWS V14.01,2013-02-28 07:29:00,
2013-02-28 02:34:00,56.1,51.6,29.97,West,264,0.0,0.0,85,0.00,,,0.00,VWS V14.01,2013-02-28 07:34:00,
2013-02-28 02:39:00,56.1,51.6,29.96,West,264,0.0,0.0,85,0.00,,,0.00,VWS V14.01,2013-02-28 07:39:00,
2013-02-28 02:44:00,56.1,51.5,29.96,West,264,0.0,0.0,85,0.00,,,0.00,VWS V14.01,2013-02-28 07:44:00,
2013-02-28 02:49:00,56.0,51.5,29.96,West,264,0.0,0.0,85,0.00,,,0.00,VWS V14.01,2013-02-28 07:49:00,
2013-02-28 02:54:00,55.9,51.3,29.96,West,264,0.0,0.0,85,0.00,,,0.00,VWS V14.01,2013-02-28 07:54:00,
2013-02-28 02:59:00,55.8,51.4,29.96,West,264,0.0,0.0,85,0.00,,,0.00,VWS V14.01,2013-02-28 07:59:00,
2013-02-28 03:04:00,55.8,51.6,29.96,West,264,0.0,0.0,86,0.00,,,0.00,VWS V14.01,2013-02-28 08:04:00,
2013-02-28 03:09:00,55.7,51.4,29.95,West,264,0.0,0.0,86,0.00,,,0.00,VWS V14.01,2013-02-28 08:09:00,
2013-02-28 03:14:00,55.6,51.5,29.96,West,264,0.0,0.0,86,0.00,,,0.00,VWS V14.01,2013-02-28 08:14:00,
2013-02-28 03:19:00,55.5,51.4,29.96,West,264,0.0,0.0,86,0.00,,,0.00,VWS V14.01,2013-02-28 08:19:00,
2013-02-28 03:24:00,55.5,51.5,29.96,West,264,0.0,0.0,86,0.00,,,0.00,VWS V14.01,2013-02-28 08:24:00,
2013-02-28 03:29:00,55.3,51.3,29.95,West,264,0.0,0.0,86,0.00,,,0.00,VWS V14.01,2013-02-28 08:29:00,
2013-02-28 03:34:00,55.2,51.4,29.96,West,264,0.0,0.0,87,0.00,,,0.00,VWS V14.01,2013-02-28 08:34:00,
2013-02-28 03:39:00,55.0,51.3,29.96,West,264,0.0,0.0,87,0.00,,,0.00,VWS V14.01,2013-02-28 08:39:00,
2013-02-28 03:44:00,55.0,51.4,29.96,West,264,0.0,0.0,88,0.00,,,0.00,VWS V14.01,2013-02-28 08:44:00,
2013-02-28 03:49:00,54.8,51.2,29.96,West,264,0.0,0.0,88,0.00,,,0.00,VWS V14.01,2013-02-28 08:49:00,
2013-02-28 03:54:00,54.8,51.3,29.96,West,264,0.0,0.0,88,0.00,,,0.00,VWS V14.01,2013-02-28 08:54:00,
2013-02-28 03:59:00,54.7,51.2,29.96,West,264,0.0,0.0,88,0.00,,,0.00,VWS V14.01,2013-02-28 08:59:00,
2013-02-28 04:04:00,54.5,51.1,29.95,West,264,0.0,0.0,88,0.00,,,0.00,VWS V14.01,2013-02-28 09:04:00,
2013-02-28 04:09:00,54.4,51.1,29.96,West,264,0.0,0.0,89,0.00,,,0.00,VWS V14.01,2013-02-28 09:09:00,
2013-02-28 04:14:00,54.3,51.1,29.95,West,264,0.0,0.0,89,0.00,,,0.00,VWS V14.01,2013-02-28 09:14:00,
2013-02-28 04:19:00,54.2,51.2,29.95,West,264,0.0,0.0,89,0.00,,,0.00,VWS V14.01,2013-02-28 09:19:00,
2013-02-28 04:24:00,54.1,51.0,29.95,West,264,0.0,0.0,89,0.00,,,0.00,VWS V14.01,2013-02-28 09:24:00,
2013-02-28 04:29:00,54.2,51.1,29.96,West,264,0.0,0.0,89,0.00,,,0.00,VWS V14.01,2013-02-28 09:29:00,
2013-02-28 04:34:00,54.1,51.1,29.96,West,264,0.0,0.0,90,0.00,,,0.00,VWS V14.01,2013-02-28 09:34:00,
2013-02-28 04:39:00,54.0,51.0,29.96,West,264,0.0,0.0,90,0.00,,,0.00,VWS V14.01,2013-02-28 09:39:00,
2013-02-28 04:44:00,54.0,51.1,29.96,West,264,0.0,0.0,90,0.00,,,0.00,VWS V14.01,2013-02-28 09:44:00,
2013-02-28 04:49:00,54.0,51.1,29.96,West,264,0.0,0.0,90,0.00,,,0.00,VWS V14.01,2013-02-28 09:49:00,
2013-02-28 04:54:00,54.0,51.1,29.96,West,264,0.0,0.0,90,0.00,,,0.00,VWS V14.01,2013-02-28 09:54:00,
2013-02-28 04:59:00,54.0,51.1,29.96,West,264,0.0,0.0,90,0.00,,,0.00,VWS V14.01,2013-02-28 09:59:00,
2013-02-28 05:04:00,53.9,51.0,29.96,West,264,0.0,0.0,90,0.00,,,0.00,VWS V14.01,2013-02-28 10:04:00,
2013-02-28 05:09:00,53.9,51.0,29.97,West,264,0.0,0.0,90,0.00,,,0.00,VWS V14.01,2013-02-28 10:09:00,
2013-02-28 05:14:00,53.8,50.9,29.97,West,264,0.0,0.0,90,0.00,,,0.00,VWS V14.01,2013-02-28 10:14:00,
2013-02-28 05:19:00,53.7,50.8,29.96,West,264,0.0,0.0,90,0.00,,,0.00,VWS V14.01,2013-02-28 10:19:00,
2013-02-28 05:24:00,53.6,50.8,29.97,West,264,0.0,0.0,90,0.00,,,0.00,VWS V14.01,2013-02-28 10:24:00,
2013-02-28 05:29:00,53.4,50.6,29.97,West,264,0.0,0.0,90,0.00,,,0.00,VWS V14.01,2013-02-28 10:29:00,
2013-02-28 05:34:00,53.3,50.5,29.97,West,264,0.0,0.0,90,0.00,,,0.00,VWS V14.01,2013-02-28 10:34:00,
2013-02-28 05:39:00,53.3,50.6,29.97,West,264,0.0,0.0,90,0.00,,,0.00,VWS V14.01,2013-02-28 10:39:00,
2013-02-28 05:44:00,53.2,50.5,29.97,West,264,0.0,0.0,90,0.00,,,0.00,VWS V14.01,2013-02-28 10:44:00,
2013-02-28 05:49:00,53.1,50.4,29.97,West,264,0.0,0.0,90,0.00,,,0.00,VWS V14.01,2013-02-28 10:49:00,
2013-02-28 05:54:00,53.0,50.3,29.97,West,264,0.0,0.0,91,0.00,,,0.00,VWS V14.01,2013-02-28 10:54:00,
2013-02-28 05:59:00,53.0,50.3,29.97,West,264,0.0,0.0,91,0.00,,,0.00,VWS V14.01,2013-02-28 10:59:00,
2013-02-28 06:04:00,53.0,50.3,29.97,West,264,0.0,0.0,91,0.00,,,0.00,VWS V14.01,2013-02-28 11:04:00,
2013-02-28 06:09:00,52.9,50.2,29.97,West,264,0.0,0.0,91,0.00,,,0.00,VWS V14.01,2013-02-28 11:09:00,
2013-02-28 06:14:00,52.8,50.1,29.98,West,264,0.0,0.0,91,0.00,,,0.00,VWS V14.01,2013-02-28 11:14:00,
2013-02-28 06:19:00,52.8,50.1,29.98,West,264,0.0,0.0,91,0.00,,,0.00,VWS V14.01,2013-02-28 11:19:00,
2013-02-28 06:24:00,52.8,50.2,29.99,West,264,0.0,0.0,91,0.00,,,0.00,VWS V14.01,2013-02-28 11:24:00,
2013-02-28 06:29:00,52.7,50.0,29.98,West,264,0.0,0.0,90,0.00,,,0.00,VWS V14.01,2013-02-28 11:29:00,
2013-02-28 06:34:00,52.5,49.8,29.98,West,264,0.0,0.0,91,0.00,,,0.00,VWS V14.01,2013-02-28 11:34:00,
2013-02-28 06:39:00,52.6,50.0,29.98,West,264,0.0,0.0,91,0.00,,,0.00,VWS V14.01,2013-02-28 11:39:00,
2013-02-28 06:44:00,52.5,50.0,29.99,West,264,0.0,0.0,91,0.00,,,0.00,VWS V14.01,2013-02-28 11:44:00,
2013-02-28 06:49:00,52.5,49.9,29.99,West,264,0.0,0.0,91,0.00,,,0.00,VWS V14.01,2013-02-28 11:49:00,
2013-02-28 06:54:00,52.4,49.8,29.99,West,264,0.0,0.0,91,0.00,,,0.00,VWS V14.01,2013-02-28 11:54:00,
2013-02-28 06:59:00,52.4,49.8,30.00,West,264,0.0,0.0,91,0.00,,,0.00,VWS V14.01,2013-02-28 11:59:00,
2013-02-28 07:04:00,52.3,49.8,30.00,West,264,0.0,0.0,91,0.00,,,0.00,VWS V14.01,2013-02-28 12:04:00,
2013-02-28 07:09:00,52.3,49.8,30.00,West,264,0.0,0.0,91,0.00,,,0.00,VWS V14.01,2013-02-28 12:09:00,
2013-02-28 07:14:00,52.1,49.7,30.00,West,264,0.0,0.0,91,0.00,,,0.00,VWS V14.01,2013-02-28 12:14:00,
2013-02-28 07:19:00,52.2,49.8,30.00,West,264,0.0,0.0,92,0.00,,,0.00,VWS V14.01,2013-02-28 12:19:00,
2013-02-28 07:24:00,52.1,49.7,30.00,West,264,0.0,0.0,92,0.00,,,0.00,VWS V14.01,2013-02-28 12:24:00,
2013-02-28 07:29:00,52.2,49.8,30.00,West,264,0.0,0.0,92,0.00,,,0.00,VWS V14.01,2013-02-28 12:29:00,
2013-02-28 07:34:00,52.3,49.9,30.01,West,264,0.0,0.0,92,0.00,,,0.00,VWS V14.01,2013-02-28 12:34:00,
2013-02-28 07:39:00,52.4,50.0,30.01,West,264,0.0,0.0,92,0.00,,,0.00,VWS V14.01,2013-02-28 12:39:00,
2013-02-28 07:44:00,52.6,50.3,30.01,West,264,0.0,0.0,92,0.00,,,0.00,VWS V14.01,2013-02-28 12:44:00,
2013-02-28 07:49:00,52.8,50.5,30.01,West,264,0.0,0.0,92,0.00,,,0.00,VWS V14.01,2013-02-28 12:49:00,
2013-02-28 07:54:00,53.0,50.7,30.01,West,264,0.0,0.0,92,0.00,,,0.00,VWS V14.01,2013-02-28 12:54:00,
2013-02-28 07:59:00,53.3,51.0,30.01,West,264,0.0,0.0,92,0.00,,,0.00,VWS V14.01,2013-02-28 12:59:00,
2013-02-28 08:04:00,53.6,51.3,30.01,West,264,0.0,0.0,92,0.00,,,0.00,VWS V14.01,2013-02-28 13:04:00,
2013-02-28 08:09:00,54.2,51.9,30.02,West,264,0.0,0.0,92,0.00,,,0.00,VWS V14.01,2013-02-28 13:09:00,
2013-02-28 08:14:00,54.7,52.2,30.02,West,264,0.0,0.0,91,0.00,,,0.00,VWS V14.01,2013-02-28 13:14:00,
2013-02-28 08:19:00,55.1,52.4,30.02,West,264,0.0,0.0,91,0.00,,,0.00,VWS V14.01,2013-02-28 13:19:00,
2013-02-28 08:24:00,55.5,52.7,30.02,West,264,0.0,0.0,90,0.00,,,0.00,VWS V14.01,2013-02-28 13:24:00,
2013-02-28 08:29:00,55.9,53.0,30.02,West,264,0.0,0.0,90,0.00,,,0.00,VWS V14.01,2013-02-28 13:29:00,
2013-02-28 08:34:00,56.3,53.0,30.02,West,264,0.0,0.0,89,0.00,,,0.00,VWS V14.01,2013-02-28 13:34:00,
2013-02-28 08:39:00,56.6,53.2,30.02,West,264,0.0,0.0,88,0.00,,,0.00,VWS V14.01,2013-02-28 13:39:00,
2013-02-28 08:44:00,57.1,53.2,30.03,NW,304,0.0,2.8,87,0.00,,,0.00,VWS V14.01,2013-02-28 13:44:00,
2013-02-28 08:49:00,57.3,53.2,30.02,West,259,0.0,4.2,86,0.00,,,0.00,VWS V14.01,2013-02-28 13:49:00,
2013-02-28 08:54:00,57.4,53.2,30.02,West,259,0.0,0.0,86,0.00,,,0.00,VWS V14.01,2013-02-28 13:54:00,
2013-02-28 08:59:00,57.7,53.2,30.02,NW,326,0.0,0.0,85,0.00,,,0.00,VWS V14.01,2013-02-28 13:59:00,
2013-02-28 09:04:00,58.0,53.0,30.02,North,359,0.0,3.0,83,0.00,,,0.00,VWS V14.01,2013-02-28 14:04:00,
2013-02-28 09:09:00,58.4,53.4,30.02,WNW,295,0.0,4.3,83,0.00,,,0.00,VWS V14.01,2013-02-28 14:09:00,
2013-02-28 09:14:00,58.8,53.8,30.02,WNW,295,0.0,0.0,84,0.00,,,0.00,VWS V14.01,2013-02-28 14:14:00,
2013-02-28 09:19:00,59.1,53.8,30.03,NNW,328,0.0,0.0,83,0.00,,,0.00,VWS V14.01,2013-02-28 14:19:00,
2013-02-28 09:24:00,59.5,54.0,30.03,WSW,243,0.0,6.4,82,0.00,,,0.00,VWS V14.01,2013-02-28 14:24:00,
2013-02-28 09:29:00,59.5,53.8,30.03,NW,326,9.6,9.6,82,0.00,,,0.00,VWS V14.01,2013-02-28 14:29:00,
2013-02-28 09:34:00,59.8,53.8,30.02,North,8,0.0,6.8,80,0.00,,,0.00,VWS V14.01,2013-02-28 14:34:00,
2013-02-28 09:39:00,60.4,54.5,30.02,West,266,0.0,0.0,81,0.00,,,0.00,VWS V14.01,2013-02-28 14:39:00,
2013-02-28 09:44:00,60.8,53.9,30.02,NW,305,2.7,5.7,78,0.00,,,0.00,VWS V14.01,2013-02-28 14:44:00,
2013-02-28 09:49:00,61.4,54.3,30.02,WNW,302,0.0,2.7,78,0.00,,,0.00,VWS V14.01,2013-02-28 14:49:00,
2013-02-28 09:54:00,61.7,54.3,30.02,North,6,3.4,9.4,77,0.00,,,0.00,VWS V14.01,2013-02-28 14:54:00,
2013-02-28 09:59:00,62.3,54.7,30.02,NW,321,0.0,3.5,76,0.00,,,0.00,VWS V14.01,2013-02-28 14:59:00,
2013-02-28 10:04:00,62.6,54.6,30.02,NNE,13,3.0,3.0,75,0.00,,,0.00,VWS V14.01,2013-02-28 15:04:00,
2013-02-28 10:09:00,63.1,54.6,30.02,WNW,290,2.1,11.4,74,0.00,,,0.00,VWS V14.01,2013-02-28 15:09:00,
2013-02-28 10:13:00,63.2,54.1,30.02,NW,321,0.0,5.5,72,0.00,,,0.00,VWS V14.01,2013-02-28 15:13:00,
2013-02-28 10:18:00,63.7,54.7,30.02,NNW,328,0.0,8.0,72,0.00,,,0.00,VWS V14.01,2013-02-28 15:18:00,
2013-02-28 10:23:00,64.3,55.6,30.02,North,349,0.0,4.8,73,0.00,,,0.00,VWS V14.01,2013-02-28 15:23:00,
2013-02-28 10:28:00,64.6,54.9,30.02,North,359,2.2,5.2,71,0.00,,,0.00,VWS V14.01,2013-02-28 15:28:00,
2013-02-28 10:33:00,64.8,54.5,30.02,North,6,0.0,7.4,69,0.00,,,0.00,VWS V14.01,2013-02-28 15:33:00,
2013-02-28 10:38:00,65.2,55.0,30.01,NNW,346,4.8,7.6,70,0.00,,,0.00,VWS V14.01,2013-02-28 15:38:00,
2013-02-28 10:44:00,65.1,52.8,30.01,NNE,15,0.0,3.5,64,0.00,,,0.00,VWS V14.01,2013-02-28 15:44:00,
2013-02-28 10:49:00,65.6,53.7,30.01,NW,305,7.1,7.1,65,0.00,,,0.00,VWS V14.01,2013-02-28 15:49:00,
2013-02-28 10:54:00,66.2,54.0,30.01,North,4,5.2,5.2,65,0.00,,,0.00,VWS V14.01,2013-02-28 15:54:00,
2013-02-28 10:59:00,66.2,53.9,30.01,North,352,3.0,5.1,64,0.00,,,0.00,VWS V14.01,2013-02-28 15:59:00,
2013-02-28 11:04:00,66.2,53.8,30.01,NNW,329,5.0,5.5,64,0.00,,,0.00,VWS V14.01,2013-02-28 16:04:00,
2013-02-28 11:09:00,66.4,54.6,30.01,WNW,295,0.0,0.0,66,0.00,,,0.00,VWS V14.01,2013-02-28 16:09:00,
2013-02-28 11:13:00,66.8,54.0,30.01,North,359,4.5,5.4,63,0.00,,,0.00,VWS V14.01,2013-02-28 16:13:00,
2013-02-28 11:18:00,66.7,54.5,30.01,NNE,32,0.0,0.0,65,0.00,,,0.00,VWS V14.01,2013-02-28 16:18:00,
2013-02-28 11:23:00,66.9,54.8,30.01,NNE,32,0.0,0.0,65,0.00,,,0.00,VWS V14.01,2013-02-28 16:23:00,
2013-02-28 11:28:00,67.8,54.1,30.00,NW,316,0.0,3.1,62,0.00,,,0.00,VWS V14.01,2013-02-28 16:28:00,
2013-02-28 11:33:00,68.1,52.8,30.00,North,6,3.5,6.0,58,0.00,,,0.00,VWS V14.01,2013-02-28 16:33:00,
2013-02-28 11:38:00,68.5,54.2,30.00,NW,318,7.1,10.3,60,0.00,,,0.00,VWS V14.01,2013-02-28 16:38:00,
2013-02-28 11:43:00,68.7,54.2,30.00,WNW,291,0.0,6.8,60,0.00,,,0.00,VWS V14.01,2013-02-28 16:43:00,
2013-02-28 11:48:00,69.1,53.7,30.00,WNW,297,6.3,13.8,58,0.00,,,0.00,VWS V14.01,2013-02-28 16:48:00,
2013-02-28 11:53:00,69.4,54.6,29.99,West,281,0.0,0.0,59,0.00,,,0.00,VWS V14.01,2013-02-28 16:53:00,
2013-02-28 11:58:00,69.9,55.2,29.99,North,350,3.5,4.7,60,0.00,,,0.00,VWS V14.01,2013-02-28 16:58:00,
2013-02-28 12:03:00,69.8,54.4,29.99,SW,231,0.0,8.1,58,0.00,,,0.00,VWS V14.01,2013-02-28 17:03:00,
2013-02-28 12:08:00,70.0,55.3,29.98,West,280,5.8,6.8,60,0.00,,,0.00,VWS V14.01,2013-02-28 17:08:00,
2013-02-28 12:13:00,70.5,55.0,29.98,NNW,328,0.0,7.9,58,0.00,,,0.00,VWS V14.01,2013-02-28 17:13:00,
2013-02-28 12:18:00,71.0,55.6,29.98,WNW,290,0.0,6.9,58,0.00,,,0.00,VWS V14.01,2013-02-28 17:18:00,
2013-02-28 12:23:00,70.8,55.2,29.97,WNW,294,0.0,9.1,58,0.00,,,0.00,VWS V14.01,2013-02-28 17:23:00,
2013-02-28 12:28:00,70.5,55.4,29.97,NW,304,3.4,6.9,59,0.00,,,0.00,VWS V14.01,2013-02-28 17:28:00,
2013-02-28 12:33:00,70.6,55.2,29.97,NW,311,3.5,8.0,58,0.00,,,0.00,VWS V14.01,2013-02-28 17:33:00,
2013-02-28 12:38:00,70.7,55.2,29.97,WNW,298,0.0,0.0,58,0.00,,,0.00,VWS V14.01,2013-02-28 17:38:00,
2013-02-28 12:43:00,70.9,55.6,29.97,NE,35,0.0,0.0,58,0.00,,,0.00,VWS V14.01,2013-02-28 17:43:00,
2013-02-28 12:48:00,70.8,56.2,29.96,NW,318,0.0,0.0,60,0.00,,,0.00,VWS V14.01,2013-02-28 17:48:00,
2013-02-28 12:53:00,70.6,55.9,29.96,NW,318,3.0,9.7,60,0.00,,,0.00,VWS V14.01,2013-02-28 17:53:00,
2013-02-28 12:58:00,70.8,56.1,29.96,North,359,0.0,5.8,60,0.00,,,0.00,VWS V14.01,2013-02-28 17:58:00,
2013-02-28 13:03:00,71.3,56.3,29.95,NW,305,0.0,0.0,59,0.00,,,0.00,VWS V14.01,2013-02-28 18:03:00,
2013-02-28 13:08:00,71.0,55.8,29.95,WSW,246,4.4,10.3,59,0.00,,,0.00,VWS V14.01,2013-02-28 18:08:00,
2013-02-28 13:13:00,71.2,55.8,29.95,North,359,2.5,13.9,58,0.00,,,0.00,VWS V14.01,2013-02-28 18:13:00,
2013-02-28 13:18:00,71.2,56.1,29.94,NE,55,0.0,7.5,59,0.00,,,0.00,VWS V14.01,2013-02-28 18:18:00,
2013-02-28 13:23:00,70.9,55.9,29.94,South,174,3.4,7.7,59,0.00,,,0.00,VWS V14.01,2013-02-28 18:23:00,
2013-02-28 13:28:00,71.1,56.3,29.94,North,359,0.0,5.1,60,0.00,,,0.00,VWS V14.01,2013-02-28 18:28:00,
2013-02-28 13:33:00,71.4,56.5,29.93,WSW,253,2.6,2.6,59,0.00,,,0.00,VWS V14.01,2013-02-28 18:33:00,
2013-02-28 13:38:00,71.7,55.8,29.93,West,277,0.0,7.5,57,0.00,,,0.00,VWS V14.01,2013-02-28 18:38:00,
2013-02-28 13:43:00,71.4,55.7,29.93,WNW,302,3.1,8.7,58,0.00,,,0.00,VWS V14.01,2013-02-28 18:43:00,
2013-02-28 13:48:00,71.1,55.6,29.93,NNW,328,0.0,11.6,58,0.00,,,0.00,VWS V14.01,2013-02-28 18:48:00,
2013-02-28 13:53:00,71.3,55.9,29.92,NW,314,4.1,8.0,58,0.00,,,0.00,VWS V14.01,2013-02-28 18:53:00,
2013-02-28 13:58:00,72.0,55.7,29.92,North,359,0.0,7.0,56,0.00,,,0.00,VWS V14.01,2013-02-28 18:58:00,
2013-02-28 14:03:00,72.1,55.8,29.92,SW,219,0.0,0.0,56,0.00,,,0.00,VWS V14.01,2013-02-28 19:03:00,
2013-02-28 14:08:00,72.6,56.1,29.92,WSW,243,3.5,11.3,56,0.00,,,0.00,VWS V14.01,2013-02-28 19:08:00,
2013-02-28 14:13:00,72.5,55.9,29.92,NNW,343,6.0,9.9,56,0.00,,,0.00,VWS V14.01,2013-02-28 19:13:00,
2013-02-28 14:18:00,72.3,56.4,29.92,WNW,301,0.0,3.0,57,0.00,,,0.00,VWS V14.01,2013-02-28 19:18:00,
2013-02-28 14:23:00,72.2,56.5,29.92,NNW,346,0.0,0.0,58,0.00,,,0.00,VWS V14.01,2013-02-28 19:23:00,
2013-02-28 14:28:00,72.4,56.6,29.91,NNW,330,6.0,11.9,58,0.00,,,0.00,VWS V14.01,2013-02-28 19:28:00,
2013-02-28 14:33:00,72.0,56.4,29.91,NW,309,0.0,3.3,58,0.00,,,0.00,VWS V14.01,2013-02-28 19:33:00,
2013-02-28 14:38:00,71.9,56.4,29.91,NW,314,0.0,1.7,58,0.00,,,0.00,VWS V14.01,2013-02-28 19:38:00,
2013-02-28 14:43:00,71.9,55.9,29.91,SW,236,5.7,6.6,57,0.00,,,0.00,VWS V14.01,2013-02-28 19:43:00,
2013-02-28 14:48:00,72.5,55.8,29.91,NW,315,8.5,12.3,56,0.00,,,0.00,VWS V14.01,2013-02-28 19:48:00,
2013-02-28 14:53:00,72.6,54.8,29.91,NW,326,0.0,8.3,54,0.00,,,0.00,VWS V14.01,2013-02-28 19:53:00,
2013-02-28 14:58:00,73.1,55.3,29.91,WSW,246,0.0,10.8,54,0.00,,,0.00,VWS V14.01,2013-02-28 19:58:00,
2013-02-28 15:03:00,73.3,55.2,29.90,SSE,163,3.5,4.4,53,0.00,,,0.00,VWS V14.01,2013-02-28 20:03:00,
2013-02-28 15:08:00,73.6,55.0,29.90,West,262,0.0,8.5,52,0.00,,,0.00,VWS V14.01,2013-02-28 20:08:00,
2013-02-28 15:13:00,73.6,54.2,29.89,WSW,253,0.0,5.8,51,0.00,,,0.00,VWS V14.01,2013-02-28 20:13:00,
2013-02-28 15:18:00,73.9,53.9,29.89,NW,315,5.3,8.1,50,0.00,,,0.00,VWS V14.01,2013-02-28 20:18:00,
2013-02-28 15:23:00,74.0,54.4,29.89,WNW,297,3.5,3.5,50,0.00,,,0.00,VWS V14.01,2013-02-28 20:23:00,
2013-02-28 15:28:00,74.4,54.3,29.89,NW,321,2.9,6.0,50,0.00,,,0.00,VWS V14.01,2013-02-28 20:28:00,
2013-02-28 15:33:00,74.7,53.3,29.89,West,263,6.6,7.1,47,0.00,,,0.00,VWS V14.01,2013-02-28 20:33:00,
2013-02-28 15:38:00,74.9,52.9,29.89,WSW,250,0.0,10.9,46,0.00,,,0.00,VWS V14.01,2013-02-28 20:38:00,
2013-02-28 15:43:00,74.7,53.2,29.89,West,273,0.0,0.0,47,0.00,,,0.00,VWS V14.01,2013-02-28 20:43:00,
2013-02-28 15:48:00,74.6,51.8,29.89,SW,235,0.0,7.6,45,0.00,,,0.00,VWS V14.01,2013-02-28 20:48:00,
2013-02-28 15:53:00,74.4,52.7,29.89,North,11,0.0,3.1,47,0.00,,,0.00,VWS V14.01,2013-02-28 20:53:00,
2013-02-28 15:58:00,74.4,51.5,29.89,NW,312,3.4,12.5,45,0.00,,,0.00,VWS V14.01,2013-02-28 20:58:00,
2013-02-28 16:03:00,74.4,51.1,29.89,North,10,0.0,5.3,44,0.00,,,0.00,VWS V14.01,2013-02-28 21:03:00,
2013-02-28 16:08:00,74.4,50.2,29.89,WSW,256,0.0,11.2,43,0.00,,,0.00,VWS V14.01,2013-02-28 21:08:00,
2013-02-28 16:13:00,74.1,50.8,29.89,SW,235,5.2,9.1,44,0.00,,,0.00,VWS V14.01,2013-02-28 21:13:00,
2013-02-28 16:18:00,74.1,51.2,29.89,WNW,292,0.0,7.6,45,0.00,,,0.00,VWS V14.01,2013-02-28 21:18:00,
2013-02-28 16:23:00,74.2,51.0,29.89,WSW,252,4.2,11.4,44,0.00,,,0.00,VWS V14.01,2013-02-28 21:23:00,
2013-02-28 16:28:00,73.9,50.9,29.88,NNW,347,0.0,3.3,44,0.00,,,0.00,VWS V14.01,2013-02-28 21:28:00,
2013-02-28 16:33:00,73.5,50.3,29.88,WNW,285,0.0,7.5,44,0.00,,,0.00,VWS V14.01,2013-02-28 21:33:00,
2013-02-28 16:38:00,73.4,49.9,29.88,West,278,10.0,12.6,44,0.00,,,0.00,VWS V14.01,2013-02-28 21:38:00,
2013-02-28 16:43:00,73.2,49.9,29.88,North,349,5.0,7.0,44,0.00,,,0.00,VWS V14.01,2013-02-28 21:43:00,
2013-02-28 16:48:00,72.7,50.0,29.89,WNW,302,3.2,11.4,45,0.00,,,0.00,VWS V14.01,2013-02-28 21:48:00,
2013-02-28 16:53:00,72.6,50.7,29.88,SSE,148,0.0,4.8,46,0.00,,,0.00,VWS V14.01,2013-02-28 21:53:00,
2013-02-28 16:58:00,72.3,49.7,29.89,WNW,292,6.0,9.9,45,0.00,,,0.00,VWS V14.01,2013-02-28 21:58:00,
2013-02-28 17:03:00,72.1,49.8,29.89,NE,48,3.2,10.5,45,0.00,,,0.00,VWS V14.01,2013-02-28 22:03:00,
2013-02-28 17:08:00,71.7,50.0,29.89,NW,311,11.8,11.8,46,0.00,,,0.00,VWS V14.01,2013-02-28 22:08:00,
2013-02-28 17:13:00,71.4,49.6,29.89,NW,325,5.8,8.5,46,0.00,,,0.00,VWS V14.01,2013-02-28 22:13:00,
2013-02-28 17:18:00,71.3,49.8,29.89,WNW,300,0.0,8.7,46,0.00,,,0.00,VWS V14.01,2013-02-28 22:18:00,
2013-02-28 17:23:00,70.9,49.7,29.89,NNE,32,0.0,11.2,47,0.00,,,0.00,VWS V14.01,2013-02-28 22:23:00,
2013-02-28 17:28:00,70.5,50.4,29.89,NW,315,6.5,7.3,49,0.00,,,0.00,VWS V14.01,2013-02-28 22:28:00,
2013-02-28 17:33:00,70.3,50.1,29.89,WNW,288,0.0,9.4,49,0.00,,,0.00,VWS V14.01,2013-02-28 22:33:00,
2013-02-28 17:38:00,70.0,50.0,29.90,WNW,288,4.3,5.0,49,0.00,,,0.00,VWS V14.01,2013-02-28 22:38:00,
2013-02-28 17:43:00,69.8,50.3,29.90,NW,307,0.0,9.1,50,0.00,,,0.00,VWS V14.01,2013-02-28 22:43:00,
2013-02-28 17:48:00,69.9,50.6,29.90,WNW,288,0.0,0.0,50,0.00,,,0.00,VWS V14.01,2013-02-28 22:48:00,
2013-02-28 17:53:00,69.7,50.5,29.91,NNW,343,7.4,7.4,50,0.00,,,0.00,VWS V14.01,2013-02-28 22:53:00,
2013-02-28 17:58:00,69.4,51.1,29.91,NW,307,0.0,9.5,52,0.00,,,0.00,VWS V14.01,2013-02-28 22:58:00,
2013-02-28 18:03:00,68.9,50.7,29.91,NW,319,4.7,7.5,52,0.00,,,0.00,VWS V14.01,2013-02-28 23:03:00,
2013-02-28 18:08:00,68.6,50.8,29.92,West,276,0.0,8.9,53,0.00,,,0.00,VWS V14.01,2013-02-28 23:08:00,
2013-02-28 18:13:00,68.4,50.9,29.92,West,269,0.0,2.2,54,0.00,,,0.00,VWS V14.01,2013-02-28 23:13:00,
2013-02-28 18:18:00,68.2,50.4,29.92,WNW,292,0.0,9.4,53,0.00,,,0.00,VWS V14.01,2013-02-28 23:18:00,
2013-02-28 18:23:00,67.9,50.3,29.92,West,273,3.1,10.9,53,0.00,,,0.00,VWS V14.01,2013-02-28 23:23:00,
2013-02-28 18:28:00,67.1,49.8,29.92,NNW,347,5.0,6.8,54,0.00,,,0.00,VWS V14.01,2013-02-28 23:28:00,
2013-02-28 18:33:00,67.0,50.1,29.91,West,281,0.0,7.6,55,0.00,,,0.00,VWS V14.01,2013-02-28 23:33:00,
2013-02-28 18:37:00,66.8,50.3,29.92,West,270,2.6,3.5,55,0.00,,,0.00,VWS V14.01,2013-02-28 23:37:00,
2013-02-28 18:42:00,66.2,50.1,29.92,WNW,290,5.0,6.0,56,0.00,,,0.00,VWS V14.01,2013-02-28 23:42:00,
2013-02-28 18:47:00,66.0,50.2,29.92,WNW,287,0.0,6.1,57,0.00,,,0.00,VWS V14.01,2013-02-28 23:47:00,
2013-02-28 18:52:00,65.7,50.1,29.92,WSW,238,3.5,8.0,57,0.00,,,0.00,VWS V14.01,2013-02-28 23:52:00,
2013-02-28 18:57:00,65.6,50.4,29.92,NW,309,0.0,6.3,58,0.00,,,0.00,VWS V14.01,2013-02-28 23:57:00,
2013-02-28 19:02:00,65.2,50.4,29.92,SW,218,0.0,5.9,59,0.00,,,0.00,VWS V14.01,2013-03-01 00:02:00,
2013-02-28 19:07:00,65.1,50.7,29.92,NW,319,9.3,9.3,60,0.00,,,0.00,VWS V14.01,2013-03-01 00:07:00,
2013-02-28 19:12:00,64.9,50.8,29.93,WNW,300,3.4,5.7,60,0.00,,,0.00,VWS V14.01,2013-03-01 00:12:00,
2013-02-28 19:17:00,64.8,50.8,29.93,North,359,2.9,7.5,60,0.00,,,0.00,VWS V14.01,2013-03-01 00:17:00,
2013-02-28 19:22:00,64.4,51.0,29.93,WNW,300,0.0,4.1,62,0.00,,,0.00,VWS V14.01,2013-03-01 00:22:00,
2013-02-28 19:27:00,64.2,51.3,29.93,WNW,300,2.4,9.1,63,0.00,,,0.00,VWS V14.01,2013-03-01 00:27:00,
2013-02-28 19:32:00,63.9,51.4,29.93,North,8,3.3,7.3,64,0.00,,,0.00,VWS V14.01,2013-03-01 00:32:00,
2013-02-28 19:37:00,64.1,51.7,29.94,NNW,328,0.0,4.6,64,0.00,,,0.00,VWS V14.01,2013-03-01 00:37:00,
2013-02-28 19:42:00,63.6,51.5,29.94,WNW,283,0.0,3.5,65,0.00,,,0.00,VWS V14.01,2013-03-01 00:42:00,
2013-02-28 19:47:00,63.8,51.6,29.94,WNW,298,2.7,7.8,64,0.00,,,0.00,VWS V14.01,2013-03-01 00:47:00,
2013-02-28 19:52:00,63.5,51.7,29.94,West,260,0.0,5.8,65,0.00,,,0.00,VWS V14.01,2013-03-01 00:52:00,
2013-02-28 19:57:00,63.3,51.6,29.94,NW,305,4.5,6.1,66,0.00,,,0.00,VWS V14.01,2013-03-01 00:57:00,
2013-02-28 20:02:00,63.2,51.5,29.94,NW,315,0.0,7.5,66,0.00,,,0.00,VWS V14.01,2013-03-01 01:02:00,
2013-02-28 20:07:00,63.0,51.4,29.94,WSW,249,0.0,8.6,66,0.00,,,0.00,VWS V14.01,2013-03-01 01:07:00,
2013-02-28 20:12:00,62.5,51.0,29.94,West,278,3.0,3.2,66,0.00,,,0.00,VWS V14.01,2013-03-01 01:12:00,
2013-02-28 20:17:00,62.7,51.2,29.93,WSW,256,0.0,0.0,66,0.00,,,0.00,VWS V14.01,2013-03-01 01:17:00,
2013-02-28 20:22:00,62.3,51.0,29.93,WSW,256,0.0,0.0,66,0.00,,,0.00,VWS V14.01,2013-03-01 01:22:00,
2013-02-28 20:27:00,62.2,51.0,29.93,NW,322,0.0,5.2,67,0.00,,,0.00,VWS V14.01,2013-03-01 01:27:00,
2013-02-28 20:32:00,62.2,51.0,29.93,NW,322,0.0,0.0,67,0.00,,,0.00,VWS V14.01,2013-03-01 01:32:00,
2013-02-28 20:37:00,62.1,51.2,29.93,NW,322,0.0,0.0,67,0.00,,,0.00,VWS V14.01,2013-03-01 01:37:00,
2013-02-28 20:42:00,61.7,50.8,29.93,WSW,256,0.0,4.8,67,0.00,,,0.00,VWS V14.01,2013-03-01 01:42:00,
2013-02-28 20:47:00,62.1,51.0,29.94,NW,304,0.0,7.6,67,0.00,,,0.00,VWS V14.01,2013-03-01 01:47:00,
2013-02-28 20:52:00,61.5,50.4,29.94,NW,304,0.0,2.9,67,0.00,,,0.00,VWS V14.01,2013-03-01 01:52:00,
2013-02-28 20:57:00,61.1,48.8,29.94,North,11,3.2,7.8,64,0.00,,,0.00,VWS V14.01,2013-03-01 01:57:00,
2013-02-28 21:02:00,60.8,48.5,29.94,West,262,3.5,7.9,64,0.00,,,0.00,VWS V14.01,2013-03-01 02:02:00,
2013-02-28 21:07:00,60.8,48.8,29.95,North,349,0.0,6.9,65,0.00,,,0.00,VWS V14.01,2013-03-01 02:07:00,
2013-02-28 21:12:00,60.5,48.8,29.95,WNW,301,0.0,0.0,65,0.00,,,0.00,VWS V14.01,2013-03-01 02:12:00,
2013-02-28 21:17:00,60.4,48.9,29.95,West,259,0.0,6.0,66,0.00,,,0.00,VWS V14.01,2013-03-01 02:17:00,
2013-02-28 21:22:00,60.2,49.0,29.95,WNW,297,6.5,7.3,67,0.00,,,0.00,VWS V14.01,2013-03-01 02:22:00,
2013-02-28 21:27:00,60.1,49.1,29.95,WNW,294,3.5,7.1,67,0.00,,,0.00,VWS V14.01,2013-03-01 02:27:00,
2013-02-28 21:32:00,59.9,49.1,29.95,WSW,256,0.0,0.0,68,0.00,,,0.00,VWS V14.01,2013-03-01 02:32:00,
2013-02-28 21:37:00,60.0,49.3,29.95,WSW,256,0.0,0.0,68,0.00,,,0.00,VWS V14.01,2013-03-01 02:37:00,
2013-02-28 21:42:00,60.0,49.8,29.96,West,278,0.0,0.0,69,0.00,,,0.00,VWS V14.01,2013-03-01 02:42:00,
2013-02-28 21:47:00,59.7,49.6,29.96,WSW,253,0.0,5.1,69,0.00,,,0.00,VWS V14.01,2013-03-01 02:47:00,
2013-02-28 21:52:00,59.4,49.6,29.96,SW,222,0.0,3.4,70,0.00,,,0.00,VWS V14.01,2013-03-01 02:52:00,
2013-02-28 21:57:00,59.5,49.7,29.96,West,277,0.0,5.4,70,0.00,,,0.00,VWS V14.01,2013-03-01 02:57:00,
2013-02-28 22:02:00,59.5,50.1,29.96,WSW,253,0.0,2.1,71,0.00,,,0.00,VWS V14.01,2013-03-01 03:02:00,
2013-02-28 22:07:00,59.3,49.9,29.96,NW,305,0.0,4.9,71,0.00,,,0.00,VWS V14.01,2013-03-01 03:07:00,
2013-02-28 22:12:00,59.3,50.2,29.96,NW,319,0.0,5.6,72,0.00,,,0.00,VWS V14.01,2013-03-01 03:12:00,
2013-02-28 22:17:00,59.2,50.1,29.96,SW,222,0.0,0.0,72,0.00,,,0.00,VWS V14.01,2013-03-01 03:17:00,
2013-02-28 22:22:00,59.2,50.3,29.96,WNW,294,0.0,0.0,72,0.00,,,0.00,VWS V14.01,2013-03-01 03:22:00,
2013-02-28 22:27:00,59.1,50.3,29.96,West,264,2.4,7.0,73,0.00,,,0.00,VWS V14.01,2013-03-01 03:27:00,
2013-02-28 22:32:00,59.1,50.3,29.96,West,263,0.0,4.2,72,0.00,,,0.00,VWS V14.01,2013-03-01 03:32:00,
2013-02-28 22:37:00,59.0,50.2,29.96,NW,316,0.0,3.2,73,0.00,,,0.00,VWS V14.01,2013-03-01 03:37:00,
2013-02-28 22:42:00,58.8,50.1,29.96,WNW,285,0.0,0.0,73,0.00,,,0.00,VWS V14.01,2013-03-01 03:42:00,
2013-02-28 22:47:00,58.7,50.1,29.96,WSW,257,0.0,5.0,73,0.00,,,0.00,VWS V14.01,2013-03-01 03:47:00,
2013-02-28 22:52:00,58.8,50.6,29.97,WNW,288,0.0,0.0,74,0.00,,,0.00,VWS V14.01,2013-03-01 03:52:00,
2013-02-28 22:57:00,58.5,50.2,29.96,WNW,288,0.0,2.5,74,0.00,,,0.00,VWS V14.01,2013-03-01 03:57:00,
2013-02-28 23:02:00,58.3,50.1,29.96,NW,315,0.0,3.3,74,0.00,,,0.00,VWS V14.01,2013-03-01 04:02:00,
2013-02-28 23:07:00,58.3,50.1,29.96,South,187,0.0,0.0,74,0.00,,,0.00,VWS V14.01,2013-03-01 04:07:00,
2013-02-28 23:12:00,58.3,50.2,29.96,South,187,0.0,0.0,74,0.00,,,0.00,VWS V14.01,2013-03-01 04:12:00,
2013-02-28 23:17:00,58.4,50.5,29.96,WNW,292,0.0,0.0,75,0.00,,,0.00,VWS V14.01,2013-03-01 04:17:00,
2013-02-28 23:22:00,58.2,50.2,29.96,WNW,292,0.0,0.0,75,0.00,,,0.00,VWS V14.01,2013-03-01 04:22:00,
2013-02-28 23:27:00,58.1,50.2,29.96,WNW,292,0.0,0.0,75,0.00,,,0.00,VWS V14.01,2013-03-01 04:27:00,
2013-02-28 23:32:00,58.0,50.2,29.96,WNW,292,0.0,0.0,75,0.00,,,0.00,VWS V14.01,2013-03-01 04:32:00,
2013-02-28 23:37:00,57.9,50.2,29.96,WSW,257,0.0,0.0,76,0.00,,,0.00,VWS V14.01,2013-03-01 04:37:00,
2013-02-28 23:42:00,57.7,50.1,29.96,WSW,257,0.0,0.0,76,0.00,,,0.00,VWS V14.01,2013-03-01 04:42:00,
2013-02-28 23:47:00,57.7,50.2,29.96,WSW,257,0.0,0.0,76,0.00,,,0.00,VWS V14.01,2013-03-01 04:47:00,
2013-02-28 23:52:00,57.7,50.3,29.96,WSW,257,0.0,0.0,76,0.00,,,0.00,VWS V14.01,2013-03-01 04:52:00,
2013-02-28 23:57:00,57.5,50.3,29.96,SW,235,0.0,0.0,77,0.00,,,0.00,VWS V14.01,2013-03-01 04:57:00,